createdAt,value
2023-01-26T00:01:20.467Z,52.30
2023-01-26T00:03:48.524Z,53.43
2023-01-26T00:06:17.782Z,51.40
2023-01-26T00:08:47.244Z,49.17
2023-01-26T00:11:16.768Z,54.23
2023-01-26T00:13:44.864Z,54.33
2023-01-26T00:16:14.745Z,56.17
2023-01-26T00:18:43.228Z,53.60
2023-01-26T00:21:15.423Z,53.00
2023-01-26T00:23:42.811Z,53.37
2023-01-26T00:26:13.368Z,54.40
2023-01-26T00:28:40.495Z,55.20
2023-01-26T00:31:27.840Z,54.77
2023-01-26T00:33:55.784Z,58.17
2023-01-26T00:36:22.741Z,56.70
2023-01-26T00:38:49.705Z,57.87
2023-01-26T00:41:35.217Z,60.00
2023-01-26T00:44:02.506Z,59.20
2023-01-26T00:46:29.621Z,58.23
2023-01-26T00:48:56.651Z,56.57
2023-01-26T00:51:23.618Z,55.70
2023-01-26T00:53:50.470Z,59.77
2023-01-26T00:56:17.411Z,60.60
2023-01-26T00:58:45.638Z,62.43
2023-01-26T01:01:12.954Z,58.77
2023-01-26T01:03:39.904Z,60.30
2023-01-26T01:06:06.858Z,66.40
2023-01-26T01:08:33.802Z,61.80
2023-01-26T01:11:06.377Z,61.73
2023-01-26T01:13:33.367Z,58.00
2023-01-26T01:16:00.351Z,58.07
2023-01-26T01:18:27.227Z,61.20
2023-01-26T01:20:54.143Z,59.67
2023-01-26T01:23:21.087Z,61.20
2023-01-26T01:25:48.127Z,59.17
2023-01-26T01:28:15.025Z,61.93
2023-01-26T01:30:42.972Z,61.87
2023-01-26T01:33:10.149Z,59.13
2023-01-26T01:35:37.083Z,61.73
2023-01-26T01:38:04.020Z,61.00
2023-01-26T01:40:30.981Z,63.37
2023-01-26T01:42:57.887Z,59.20
2023-01-26T01:45:44.420Z,61.53
2023-01-26T01:48:36.287Z,58.70
2023-01-26T01:51:08.652Z,61.90
2023-01-26T01:53:39.904Z,56.17
2023-01-26T01:56:13.413Z,58.40
2023-01-26T01:58:43.337Z,56.77
2023-01-26T02:01:11.419Z,57.23
2023-01-26T02:03:38.631Z,61.70
2023-01-26T02:06:22.759Z,57.93
2023-01-26T02:08:52.661Z,57.77
2023-01-26T02:11:45.143Z,57.17
2023-01-26T02:14:14.793Z,57.33
2023-01-26T02:16:41.640Z,57.93
2023-01-26T02:19:18.597Z,58.00
2023-01-26T02:21:46.915Z,57.87
2023-01-26T02:24:25.767Z,58.70
2023-01-26T02:26:54.868Z,56.40
2023-01-26T02:29:22.942Z,57.47
2023-01-26T02:31:50.316Z,56.23
2023-01-26T02:34:17.152Z,57.30
2023-01-26T02:36:44.002Z,57.80
2023-01-26T02:39:24.049Z,58.77
2023-01-26T02:42:11.041Z,56.90
2023-01-26T02:44:41.643Z,56.10
2023-01-26T02:47:19.273Z,57.30
2023-01-26T02:49:50.620Z,55.20
2023-01-26T02:52:21.308Z,54.80
2023-01-26T02:55:06.627Z,57.87
2023-01-26T02:57:35.247Z,60.80
2023-01-26T03:00:03.734Z,58.33
2023-01-26T03:02:30.584Z,58.47
2023-01-26T03:04:57.427Z,57.20
2023-01-26T03:07:24.719Z,56.20
2023-01-26T03:09:51.623Z,58.10
2023-01-26T03:12:18.512Z,57.03
2023-01-26T03:14:45.442Z,59.20
2023-01-26T03:17:12.393Z,58.70
2023-01-26T03:19:57.972Z,60.50
2023-01-26T03:22:43.175Z,57.20
2023-01-26T03:25:28.484Z,57.00
2023-01-26T03:27:55.343Z,57.30
2023-01-26T03:30:22.468Z,59.20
2023-01-26T03:32:49.853Z,58.03
2023-01-26T03:35:22.772Z,56.63
2023-01-26T03:37:54.865Z,56.63
2023-01-26T03:40:40.592Z,55.57
2023-01-26T03:43:27.658Z,56.77
2023-01-26T03:46:13.684Z,56.73
2023-01-26T03:48:59.131Z,60.27
2023-01-26T03:51:44.678Z,56.13
2023-01-26T03:54:29.953Z,57.27
2023-01-26T03:56:56.817Z,55.53
2023-01-26T03:59:38.106Z,58.17
2023-01-26T04:02:24.678Z,55.53
2023-01-26T04:05:10.999Z,52.20
2023-01-26T04:07:57.285Z,53.07
2023-01-26T04:10:25.328Z,54.30
2023-01-26T04:13:10.659Z,54.70
2023-01-26T04:15:56.385Z,54.30
2023-01-26T04:18:42.231Z,55.27
2023-01-26T04:21:29.195Z,55.20
2023-01-26T04:23:57.815Z,54.37
2023-01-26T04:26:26.168Z,57.57
2023-01-26T04:28:53.284Z,55.27
2023-01-26T04:31:20.370Z,58.10
2023-01-26T04:33:47.672Z,59.40
2023-01-26T04:36:14.511Z,57.00
2023-01-26T04:38:41.457Z,62.57
2023-01-26T04:41:08.405Z,68.33
2023-01-26T04:43:35.387Z,65.33
2023-01-26T04:46:05.310Z,59.80
2023-01-26T04:48:33.110Z,65.70
2023-01-26T04:51:02.824Z,68.77
2023-01-26T04:53:32.265Z,63.53
2023-01-26T04:55:59.785Z,68.30
2023-01-26T04:58:26.838Z,68.20
2023-01-26T05:00:58.886Z,67.97
2023-01-26T05:03:26.397Z,63.03
2023-01-26T05:05:55.183Z,64.17
2023-01-26T05:08:23.288Z,59.97
2023-01-26T05:10:51.464Z,61.20
2023-01-26T05:13:18.763Z,61.03
2023-01-26T05:15:46.631Z,60.23
2023-01-26T05:18:13.635Z,55.03
2023-01-26T05:20:40.526Z,54.93
2023-01-26T05:23:07.782Z,58.27
2023-01-26T05:25:34.852Z,59.47
2023-01-26T05:28:01.878Z,57.43
2023-01-26T05:30:29.063Z,58.07
2023-01-26T05:33:03.757Z,57.30
2023-01-26T05:35:31.146Z,57.23
2023-01-26T05:37:58.300Z,57.47
2023-01-26T05:40:26.218Z,54.20
2023-01-26T05:42:54.093Z,56.10
2023-01-26T05:45:21.646Z,57.73
2023-01-26T05:47:49.011Z,56.07
2023-01-26T05:50:17.896Z,57.43
2023-01-26T05:52:46.740Z,56.97
2023-01-26T05:55:15.468Z,56.50
2023-01-26T05:57:42.511Z,57.20
2023-01-26T06:00:13.588Z,57.80
2023-01-26T06:02:41.207Z,55.67
2023-01-26T06:05:09.069Z,57.33
2023-01-26T06:07:36.210Z,53.70
2023-01-26T06:10:03.926Z,56.23
2023-01-26T06:12:35.485Z,54.70
2023-01-26T06:15:03.135Z,57.43
2023-01-26T06:17:30.094Z,54.40
2023-01-26T06:19:59.684Z,55.47
2023-01-26T06:22:26.600Z,54.43
2023-01-26T06:24:53.475Z,53.80
2023-01-26T06:27:20.447Z,53.50
2023-01-26T06:29:47.347Z,51.07
2023-01-26T06:32:15.497Z,53.40
2023-01-26T06:34:42.466Z,51.13
2023-01-26T06:37:09.928Z,53.77
2023-01-26T06:39:36.799Z,54.00
2023-01-26T06:42:04.123Z,51.13
2023-01-26T06:44:31.057Z,55.27
2023-01-26T06:46:57.949Z,54.10
2023-01-26T06:49:24.896Z,54.40
2023-01-26T06:52:17.881Z,53.50
2023-01-26T06:54:44.762Z,51.83
2023-01-26T06:57:11.802Z,54.10
2023-01-26T06:59:38.994Z,51.90
2023-01-26T07:02:11.841Z,52.43
2023-01-26T07:04:38.705Z,51.50
2023-01-26T07:07:05.630Z,51.07
2023-01-26T07:09:32.473Z,49.20
2023-01-26T07:11:59.346Z,49.83
2023-01-26T07:14:26.228Z,50.77
2023-01-26T07:16:53.210Z,50.57
2023-01-26T07:19:20.235Z,51.67
2023-01-26T07:21:47.365Z,50.23
2023-01-26T07:24:14.350Z,48.70
2023-01-26T07:26:41.260Z,50.40
2023-01-26T07:29:08.279Z,51.50
2023-01-26T07:31:41.643Z,52.97
2023-01-26T07:34:10.163Z,50.60
2023-01-26T07:36:37.101Z,54.50
2023-01-26T07:39:06.477Z,53.10
2023-01-26T07:41:35.034Z,56.13
2023-01-26T07:44:02.108Z,53.60
2023-01-26T07:46:29.242Z,50.60
2023-01-26T07:48:56.822Z,52.63
2023-01-26T07:51:23.893Z,51.20
2023-01-26T07:53:50.766Z,52.87
2023-01-26T07:56:21.360Z,50.60
2023-01-26T07:58:55.421Z,50.10
2023-01-26T08:01:23.130Z,49.77
2023-01-26T08:03:51.813Z,50.60
2023-01-26T08:06:19.252Z,51.47
2023-01-26T08:08:51.178Z,50.90
2023-01-26T08:11:19.563Z,54.20
2023-01-26T08:13:46.543Z,48.87
2023-01-26T08:16:13.887Z,50.90
2023-01-26T08:18:42.284Z,49.97
2023-01-26T08:21:09.990Z,46.30
2023-01-26T08:23:36.902Z,48.40
2023-01-26T08:26:05.942Z,45.07
2023-01-26T08:28:33.635Z,46.17
2023-01-26T08:31:08.639Z,44.40
2023-01-26T08:33:35.953Z,44.07
2023-01-26T08:36:04.421Z,42.40
2023-01-26T08:38:32.684Z,48.87
2023-01-26T08:41:00.952Z,44.97
2023-01-26T08:43:28.459Z,45.73
2023-01-26T08:45:55.404Z,46.80
2023-01-26T08:48:22.542Z,52.27
2023-01-26T08:50:53.280Z,50.37
2023-01-26T08:53:20.235Z,44.90
2023-01-26T08:55:47.093Z,43.73
2023-01-26T08:58:14.079Z,41.87
2023-01-26T09:00:41.187Z,43.40
2023-01-26T09:03:08.348Z,45.00
2023-01-26T09:05:37.686Z,43.17
2023-01-26T09:08:05.719Z,42.70
2023-01-26T09:10:33.064Z,44.07
2023-01-26T09:13:00.920Z,45.10
2023-01-26T09:15:28.663Z,43.57
2023-01-26T09:17:55.591Z,45.97
2023-01-26T09:20:22.906Z,41.20
2023-01-26T09:22:49.791Z,40.80
2023-01-26T09:25:16.897Z,39.77
2023-01-26T09:27:44.737Z,42.27
2023-01-26T09:30:13.096Z,43.70
2023-01-26T09:32:40.707Z,40.93
2023-01-26T09:35:14.255Z,38.80
2023-01-26T09:37:43.495Z,39.80
2023-01-26T09:40:18.450Z,41.07
2023-01-26T09:43:21.438Z,44.57
2023-01-26T09:46:23.937Z,42.33
2023-01-26T09:49:41.934Z,40.30
2023-01-26T09:52:58.292Z,42.60
2023-01-26T09:55:25.933Z,38.67
2023-01-26T09:58:06.546Z,41.10
2023-01-26T10:00:44.807Z,37.63
2023-01-26T10:03:31.336Z,36.97
2023-01-26T10:06:23.285Z,36.50
2023-01-26T10:08:50.623Z,36.40
2023-01-26T10:11:25.688Z,34.73
2023-01-26T10:14:00.549Z,35.60
2023-01-26T10:16:27.699Z,33.67
2023-01-26T10:19:14.369Z,33.97
2023-01-26T10:21:49.716Z,31.70
2023-01-26T10:24:20.459Z,31.00
2023-01-26T10:26:47.980Z,33.30
2023-01-26T10:29:16.380Z,31.30
2023-01-26T10:31:45.487Z,30.97
2023-01-26T10:34:24.848Z,30.07
2023-01-26T10:37:02.349Z,29.30
2023-01-26T10:39:29.508Z,29.80
2023-01-26T10:42:02.025Z,30.47
2023-01-26T10:44:39.304Z,30.67
2023-01-26T10:47:32.455Z,29.87
2023-01-26T10:50:25.812Z,30.10
2023-01-26T10:53:00.978Z,28.43
2023-01-26T10:55:28.638Z,28.23
2023-01-26T10:57:55.657Z,27.30
2023-01-26T11:00:24.041Z,28.80
2023-01-26T11:02:59.475Z,28.03
2023-01-26T11:05:27.865Z,26.50
2023-01-26T11:08:00.569Z,26.67
2023-01-26T11:10:36.545Z,28.73
2023-01-26T11:13:22.434Z,25.60
2023-01-26T11:16:01.283Z,26.83
2023-01-26T11:19:05.232Z,25.30
2023-01-26T11:21:51.732Z,25.60
2023-01-26T11:24:49.601Z,27.13
2023-01-26T11:27:41.623Z,26.20
2023-01-26T11:30:48.715Z,24.57
2023-01-26T11:33:47.508Z,25.30
2023-01-26T11:36:39.679Z,24.20
2023-01-26T11:39:48.150Z,23.60
2023-01-26T11:42:31.373Z,23.13
2023-01-26T11:45:44.049Z,22.87
2023-01-26T11:48:56.884Z,21.17
2023-01-26T11:52:08.138Z,20.40
2023-01-26T11:55:00.221Z,21.27
2023-01-26T11:57:44.471Z,22.77
2023-01-26T12:00:30.213Z,20.80
2023-01-26T12:03:04.820Z,20.70
2023-01-26T12:05:43.573Z,18.97
2023-01-26T12:08:42.260Z,17.47
2023-01-26T12:11:38.852Z,14.60
2023-01-26T12:14:36.847Z,14.33
2023-01-26T12:17:28.480Z,14.30
2023-01-26T12:20:30.710Z,13.00
2023-01-26T12:23:09.873Z,14.90
2023-01-26T12:25:38.342Z,12.60
2023-01-26T12:28:40.992Z,14.83
2023-01-26T12:31:46.047Z,14.27
2023-01-26T12:34:17.717Z,14.50
2023-01-26T12:37:32.134Z,15.40
2023-01-26T12:40:25.421Z,14.33
2023-01-26T12:43:36.853Z,13.73
2023-01-26T12:46:06.569Z,11.80
2023-01-26T12:48:57.045Z,12.93
2023-01-26T12:51:27.080Z,11.67
2023-01-26T12:54:05.950Z,11.30
2023-01-26T12:56:40.956Z,12.50
2023-01-26T12:59:46.458Z,11.70
2023-01-26T13:02:20.582Z,12.23
2023-01-26T13:04:49.236Z,13.17
2023-01-26T13:07:51.427Z,13.30
2023-01-26T13:10:28.563Z,12.73
2023-01-26T13:13:00.860Z,11.80
2023-01-26T13:15:30.479Z,12.30
2023-01-26T13:18:02.967Z,12.10
2023-01-26T13:20:50.399Z,13.37
2023-01-26T13:23:44.134Z,13.80
2023-01-26T13:26:45.004Z,11.00
2023-01-26T13:29:32.230Z,10.23
2023-01-26T13:32:01.158Z,11.60
2023-01-26T13:35:00.245Z,11.47
2023-01-26T13:37:49.952Z,11.00
2023-01-26T13:40:39.828Z,9.80
2023-01-26T13:43:27.219Z,10.53
2023-01-26T13:46:07.987Z,9.53
2023-01-26T13:48:51.897Z,10.80
2023-01-26T13:51:23.072Z,10.10
2023-01-26T13:54:11.009Z,9.33
2023-01-26T13:56:43.256Z,7.80
2023-01-26T13:59:16.474Z,8.23
2023-01-26T14:01:54.087Z,7.17
2023-01-26T14:04:32.387Z,8.80
2023-01-26T14:07:06.704Z,8.40
2023-01-26T14:09:42.969Z,7.83
2023-01-26T14:12:25.222Z,6.70
2023-01-26T14:14:56.167Z,7.17
2023-01-26T14:17:56.684Z,7.10
2023-01-26T14:20:32.565Z,7.50
2023-01-26T14:23:30.152Z,7.43
2023-01-26T14:26:22.053Z,7.97
2023-01-26T14:28:48.939Z,7.60
2023-01-26T14:31:25.211Z,8.53
2023-01-26T14:33:57.514Z,8.83
2023-01-26T14:36:37.263Z,9.30
2023-01-26T14:39:16.278Z,9.30
2023-01-26T14:41:43.590Z,9.13
2023-01-26T14:44:16.619Z,9.53
2023-01-26T14:47:14.023Z,9.83
2023-01-26T14:50:23.334Z,9.03
2023-01-26T14:52:50.429Z,11.37
2023-01-26T14:55:32.354Z,12.07
2023-01-26T14:58:02.130Z,11.03
2023-01-26T15:00:33.717Z,11.00
2023-01-26T15:03:05.851Z,13.40
2023-01-26T15:05:37.879Z,13.07
2023-01-26T15:08:17.955Z,12.50
2023-01-26T15:11:18.707Z,12.67
2023-01-26T15:13:48.172Z,14.03
2023-01-26T15:16:17.841Z,13.40
2023-01-26T15:18:46.059Z,13.73
2023-01-26T15:21:18.973Z,14.10
2023-01-26T15:23:50.298Z,14.30
2023-01-26T15:26:44.134Z,14.50
2023-01-26T15:29:37.639Z,15.63
2023-01-26T15:32:05.900Z,14.87
2023-01-26T15:34:42.259Z,15.23
2023-01-26T15:37:29.196Z,15.60
2023-01-26T15:39:56.424Z,15.17
2023-01-26T15:42:27.708Z,15.73
2023-01-26T15:44:54.812Z,16.53
2023-01-26T15:47:21.743Z,16.23
2023-01-26T15:49:48.682Z,16.63
2023-01-26T15:52:18.228Z,19.10
2023-01-26T15:54:45.395Z,18.90
2023-01-26T15:57:13.127Z,20.30
2023-01-26T15:59:40.901Z,21.67
2023-01-26T16:02:19.545Z,22.90
2023-01-26T16:04:46.912Z,20.47
2023-01-26T16:07:17.036Z,22.00
2023-01-26T16:09:44.477Z,26.50
2023-01-26T16:12:31.175Z,22.43
2023-01-26T16:14:59.075Z,22.23
2023-01-26T16:17:26.163Z,21.83
2023-01-26T16:19:53.212Z,19.70
2023-01-26T16:22:20.489Z,21.33
2023-01-26T16:24:47.663Z,20.60
2023-01-26T16:27:14.588Z,20.40
2023-01-26T16:29:41.612Z,22.20
2023-01-26T16:32:28.351Z,21.07
2023-01-26T16:34:55.592Z,22.20
2023-01-26T16:37:22.499Z,19.93
2023-01-26T16:39:49.441Z,21.63
2023-01-26T16:42:19.262Z,19.73
2023-01-26T16:44:47.116Z,19.00
2023-01-26T16:47:14.170Z,21.10
2023-01-26T16:49:41.114Z,20.67
2023-01-26T16:52:11.466Z,19.87
2023-01-26T16:54:38.471Z,22.83
2023-01-26T16:57:05.524Z,21.30
2023-01-26T16:59:32.561Z,23.20
2023-01-26T17:01:59.526Z,22.40
2023-01-26T17:04:26.453Z,22.33
2023-01-26T17:06:53.415Z,22.57
2023-01-26T17:09:21.343Z,27.10
2023-01-26T17:11:48.275Z,26.00
2023-01-26T17:14:15.402Z,28.83
2023-01-26T17:16:42.386Z,27.93
2023-01-26T17:19:09.655Z,25.37
2023-01-26T17:21:37.244Z,26.40
2023-01-26T17:24:04.580Z,27.03
2023-01-26T17:26:31.735Z,28.87
2023-01-26T17:28:58.668Z,25.40
2023-01-26T17:31:26.603Z,29.43
2023-01-26T17:33:55.286Z,26.93
2023-01-26T17:36:22.328Z,25.83
2023-01-26T17:38:49.915Z,29.07
2023-01-26T17:41:17.727Z,24.77
2023-01-26T17:43:45.144Z,27.43
2023-01-26T17:46:17.824Z,28.13
2023-01-26T17:48:45.900Z,24.90
2023-01-26T17:51:19.125Z,26.63
2023-01-26T17:53:47.677Z,27.97
2023-01-26T17:56:16.767Z,27.30
2023-01-26T17:58:47.511Z,25.67
2023-01-26T18:01:14.481Z,26.43
2023-01-26T18:03:42.584Z,28.00
2023-01-26T18:06:10.086Z,28.73
2023-01-26T18:08:38.914Z,27.47
2023-01-26T18:11:08.918Z,26.47
2023-01-26T18:13:36.346Z,30.47
2023-01-26T18:16:05.720Z,29.17
2023-01-26T18:18:32.783Z,30.10
2023-01-26T18:21:11.127Z,31.67
2023-01-26T18:23:38.135Z,32.67
2023-01-26T18:26:06.229Z,32.27
2023-01-26T18:28:33.300Z,29.93
2023-01-26T18:31:10.267Z,28.93
2023-01-26T18:33:37.292Z,28.50
2023-01-26T18:36:12.124Z,25.53
2023-01-26T18:38:43.629Z,26.30
2023-01-26T18:41:11.959Z,29.17
2023-01-26T18:43:39.698Z,28.93
2023-01-26T18:46:06.989Z,26.67
2023-01-26T18:48:35.257Z,39.60
2023-01-26T18:51:03.175Z,29.87
2023-01-26T18:53:30.340Z,31.43
2023-01-26T18:56:11.638Z,27.27
2023-01-26T18:58:39.681Z,30.73
2023-01-26T19:01:10.581Z,32.97
2023-01-26T19:03:38.121Z,31.53
2023-01-26T19:06:06.024Z,34.00
2023-01-26T19:08:34.558Z,30.93
2023-01-26T19:11:06.239Z,32.17
2023-01-26T19:13:33.805Z,36.40
2023-01-26T19:16:00.766Z,35.40
2023-01-26T19:18:28.016Z,34.13
2023-01-26T19:20:59.890Z,31.40
2023-01-26T19:23:27.606Z,31.20
2023-01-26T19:25:54.733Z,32.27
2023-01-26T19:28:21.886Z,31.53
2023-01-26T19:30:58.225Z,32.50
2023-01-26T19:33:25.719Z,30.40
2023-01-26T19:35:52.825Z,32.50
2023-01-26T19:38:20.222Z,29.60
2023-01-26T19:40:49.373Z,34.53
2023-01-26T19:43:19.438Z,30.23
2023-01-26T19:45:53.165Z,31.20
2023-01-26T19:48:27.408Z,30.43
2023-01-26T19:51:15.587Z,35.07
2023-01-26T19:53:45.073Z,34.23
2023-01-26T19:56:22.259Z,36.00
2023-01-26T19:58:51.740Z,35.10
2023-01-26T20:01:19.643Z,32.80
2023-01-26T20:03:51.851Z,34.90
2023-01-26T20:06:21.656Z,38.30
2023-01-26T20:08:49.345Z,34.37
2023-01-26T20:11:16.806Z,36.37
2023-01-26T20:13:43.842Z,37.67
2023-01-26T20:16:12.316Z,35.80
2023-01-26T20:18:39.562Z,38.53
2023-01-26T20:21:07.459Z,35.63
2023-01-26T20:23:35.208Z,35.47
2023-01-26T20:26:04.830Z,35.83
2023-01-26T20:28:32.048Z,38.30
2023-01-26T20:31:12.652Z,40.60
2023-01-26T20:33:42.481Z,42.50
2023-01-26T20:36:12.925Z,43.37
2023-01-26T20:38:39.923Z,44.53
2023-01-26T20:41:15.934Z,38.03
2023-01-26T20:43:58.131Z,40.10
2023-01-26T20:46:28.092Z,37.17
2023-01-26T20:48:55.794Z,39.33
2023-01-26T20:51:26.389Z,42.13
2023-01-26T20:53:53.318Z,41.07
2023-01-26T20:56:21.798Z,40.40
2023-01-26T20:58:51.541Z,40.27
2023-01-26T21:01:19.006Z,38.87
2023-01-26T21:03:46.025Z,40.07
2023-01-26T21:06:15.453Z,39.70
2023-01-26T21:08:43.473Z,43.47
2023-01-26T21:11:13.371Z,42.07
2023-01-26T21:13:41.782Z,39.87
2023-01-26T21:16:13.843Z,40.50
2023-01-26T21:18:41.409Z,41.10
2023-01-26T21:21:11.973Z,49.37
2023-01-26T21:23:38.949Z,47.03
2023-01-26T21:26:16.356Z,39.00
2023-01-26T21:28:43.220Z,36.47
2023-01-26T21:31:15.201Z,29.13
2023-01-26T21:33:44.435Z,30.03
2023-01-26T21:36:14.415Z,27.10
2023-01-26T21:38:43.672Z,29.37
2023-01-26T21:41:34.442Z,26.50
2023-01-26T21:44:07.369Z,26.60
2023-01-26T21:46:35.013Z,27.40
2023-01-26T21:49:02.151Z,27.80
2023-01-26T21:51:48.148Z,28.20
2023-01-26T21:54:15.302Z,26.07
2023-01-26T21:56:42.659Z,25.10
2023-01-26T21:59:14.732Z,24.30
2023-01-26T22:01:47.757Z,23.67
2023-01-26T22:04:17.309Z,23.93
2023-01-26T22:06:44.428Z,22.33
2023-01-26T22:09:13.488Z,20.20
2023-01-26T22:11:40.631Z,17.07
2023-01-26T22:14:09.267Z,18.77
2023-01-26T22:16:36.358Z,16.97
2023-01-26T22:19:03.778Z,16.60
2023-01-26T22:21:31.269Z,13.73
2023-01-26T22:23:58.198Z,14.33
2023-01-26T22:26:25.119Z,13.37
2023-01-26T22:28:57.486Z,12.50
2023-01-26T22:31:29.028Z,12.90
2023-01-26T22:33:58.853Z,13.10
2023-01-26T22:36:26.837Z,13.13
2023-01-26T22:38:54.158Z,14.10
2023-01-26T22:41:24.210Z,13.37
2023-01-26T22:43:54.424Z,12.67
2023-01-26T22:46:23.161Z,12.00
2023-01-26T22:48:51.341Z,12.67
2023-01-26T22:51:20.808Z,13.23
2023-01-26T22:53:52.385Z,11.87
2023-01-26T22:56:20.627Z,12.73
2023-01-26T22:58:58.336Z,11.70
2023-01-26T23:01:31.339Z,10.40
2023-01-26T23:03:59.206Z,11.63
2023-01-26T23:06:26.245Z,9.33
2023-01-26T23:08:53.953Z,12.00
2023-01-26T23:11:26.131Z,9.40
2023-01-26T23:13:54.908Z,10.00
2023-01-26T23:16:23.839Z,10.37
2023-01-26T23:18:51.982Z,11.87
2023-01-26T23:21:19.442Z,10.10
2023-01-26T23:23:46.417Z,10.53
2023-01-26T23:26:13.298Z,10.10
2023-01-26T23:28:41.984Z,9.57
2023-01-26T23:31:11.017Z,9.97
2023-01-26T23:33:39.207Z,10.00
2023-01-26T23:36:08.129Z,8.63
2023-01-26T23:38:35.138Z,9.83
2023-01-26T23:41:02.911Z,10.10
2023-01-26T23:43:29.761Z,10.30
2023-01-26T23:45:56.972Z,9.97
2023-01-26T23:48:25.149Z,11.00
2023-01-26T23:50:56.730Z,9.77
2023-01-26T23:53:24.529Z,9.70
2023-01-26T23:55:51.807Z,8.67
2023-01-26T23:58:19.528Z,10.23
